createdAt,value
2022-09-25T00:01:51.586Z,76904.63
2022-09-25T00:04:19.503Z,76890.72
2022-09-25T00:06:48.645Z,76890.72
2022-09-25T00:09:20.189Z,76900.66
2022-09-25T00:11:47.831Z,76896.66
2022-09-25T00:14:14.888Z,76890.72
2022-09-25T00:16:41.437Z,76896.66
2022-09-25T00:19:39.738Z,76888.72
2022-09-25T00:22:06.387Z,76886.72
2022-09-25T00:24:34.076Z,76894.69
2022-09-25T00:27:01.225Z,76888.72
2022-09-25T00:29:27.795Z,76878.78
2022-09-25T00:31:55.430Z,76882.75
2022-09-25T00:34:21.931Z,76866.84
2022-09-25T00:36:48.385Z,76874.81
2022-09-25T00:39:14.991Z,76858.91
2022-09-25T00:41:41.580Z,76864.88
2022-09-25T00:44:46.371Z,76854.94
2022-09-25T00:47:17.852Z,76860.91
2022-09-25T00:49:45.355Z,76856.94
2022-09-25T00:52:13.762Z,76860.91
2022-09-25T00:54:49.097Z,76856.94
2022-09-25T00:57:19.746Z,76870.84
2022-09-25T00:59:57.567Z,76876.78
2022-09-25T01:02:28.686Z,76878.78
2022-09-25T01:04:59.886Z,76872.81
2022-09-25T01:07:26.731Z,76868.84
2022-09-25T01:09:59.383Z,76872.81
2022-09-25T01:12:26.086Z,76874.81
2022-09-25T01:14:53.297Z,76874.81
2022-09-25T01:17:27.128Z,76868.84
2022-09-25T01:20:31.335Z,76868.84
2022-09-25T01:23:20.569Z,76858.91
2022-09-25T01:26:18.052Z,76856.94
2022-09-25T01:28:50.527Z,76856.94
2022-09-25T01:31:35.472Z,76872.81
2022-09-25T01:34:40.469Z,76858.91
2022-09-25T01:37:31.673Z,76868.84
2022-09-25T01:40:12.288Z,76872.81
2022-09-25T01:42:51.358Z,76868.84
2022-09-25T01:45:41.145Z,76874.81
2022-09-25T01:48:10.670Z,76886.72
2022-09-25T01:51:04.142Z,76882.75
2022-09-25T01:53:43.517Z,76892.69
2022-09-25T01:56:32.960Z,76884.75
2022-09-25T01:59:08.421Z,76884.75
2022-09-25T02:01:40.884Z,76884.75
2022-09-25T02:04:16.694Z,76890.72
2022-09-25T02:06:46.762Z,76888.72
2022-09-25T02:09:19.564Z,76896.66
2022-09-25T02:11:50.713Z,76894.69
2022-09-25T02:14:23.103Z,76882.75
2022-09-25T02:16:55.538Z,76872.81
2022-09-25T02:19:41.275Z,76864.88
2022-09-25T02:22:10.388Z,76852.94
2022-09-25T02:24:48.142Z,76858.91
2022-09-25T02:27:16.124Z,76860.91
2022-09-25T02:29:45.541Z,76848.97
2022-09-25T02:32:15.675Z,76852.94
2022-09-25T02:34:42.228Z,76860.91
2022-09-25T02:37:16.613Z,76860.91
2022-09-25T02:39:48.216Z,76866.84
2022-09-25T02:42:37.040Z,76872.81
2022-09-25T02:45:08.302Z,76878.78
2022-09-25T02:47:42.461Z,76866.84
2022-09-25T02:50:47.648Z,76872.81
2022-09-25T02:53:19.933Z,76888.72
2022-09-25T02:55:57.498Z,76894.69
2022-09-25T02:58:42.162Z,76890.72
2022-09-25T03:01:12.710Z,76882.75
2022-09-25T03:03:40.236Z,76882.75
2022-09-25T03:06:08.726Z,76886.72
2022-09-25T03:08:38.943Z,76882.75
2022-09-25T03:11:07.974Z,76874.81
2022-09-25T03:13:35.145Z,76872.81
2022-09-25T03:16:23.377Z,76884.75
2022-09-25T03:18:49.938Z,76876.78
2022-09-25T03:21:16.802Z,76884.75
2022-09-25T03:23:43.549Z,76886.72
2022-09-25T03:26:09.966Z,76886.72
2022-09-25T03:28:36.581Z,76880.78
2022-09-25T03:31:06.953Z,76888.72
2022-09-25T03:33:36.846Z,76898.66
2022-09-25T03:36:07.465Z,76892.69
2022-09-25T03:38:34.138Z,76896.66
2022-09-25T03:41:02.268Z,76886.72
2022-09-25T03:43:33.529Z,76890.72
2022-09-25T03:46:00.159Z,76880.78
2022-09-25T03:48:26.722Z,76878.78
2022-09-25T03:50:53.364Z,76874.81
2022-09-25T03:53:19.832Z,76868.84
2022-09-25T03:55:49.164Z,76866.84
2022-09-25T03:58:17.218Z,76874.81
2022-09-25T04:00:46.157Z,76872.81
2022-09-25T04:03:14.383Z,76868.84
2022-09-25T04:05:42.210Z,76860.91
2022-09-25T04:08:08.651Z,76866.84
2022-09-25T04:10:38.748Z,76884.75
2022-09-25T04:13:07.121Z,76894.69
2022-09-25T04:15:34.831Z,76878.78
2022-09-25T04:18:05.932Z,76888.72
2022-09-25T04:20:32.769Z,76876.78
2022-09-25T04:22:59.281Z,76882.75
2022-09-25T04:25:25.968Z,76896.66
2022-09-25T04:27:55.531Z,76904.63
2022-09-25T04:30:26.946Z,76908.59
2022-09-25T04:33:12.709Z,76912.56
2022-09-25T04:35:39.304Z,76912.56
2022-09-25T04:38:05.813Z,76920.53
2022-09-25T04:40:32.853Z,76914.56
2022-09-25T04:43:01.527Z,76916.53
2022-09-25T04:45:29.280Z,76896.66
2022-09-25T04:47:59.911Z,76910.59
2022-09-25T04:50:28.416Z,76902.63
2022-09-25T04:52:57.053Z,76900.66
2022-09-25T04:55:24.471Z,76914.56
2022-09-25T04:57:59.765Z,76924.50
2022-09-25T05:00:29.479Z,76912.56
2022-09-25T05:02:56.191Z,76904.63
2022-09-25T05:05:27.324Z,76878.78
2022-09-25T05:07:55.428Z,76888.72
2022-09-25T05:10:23.748Z,76892.69
2022-09-25T05:12:55.731Z,76896.66
2022-09-25T05:15:22.550Z,76896.66
2022-09-25T05:17:49.261Z,76910.59
2022-09-25T05:20:17.197Z,76912.56
2022-09-25T05:22:44.529Z,76916.53
2022-09-25T05:25:11.063Z,76916.53
2022-09-25T05:27:37.590Z,76922.50
2022-09-25T05:30:04.524Z,76928.47
2022-09-25T05:32:31.173Z,76916.53
2022-09-25T05:34:57.738Z,76914.56
2022-09-25T05:37:24.440Z,76866.84
2022-09-25T05:39:50.858Z,76882.75
2022-09-25T05:42:19.400Z,76888.72
2022-09-25T05:44:46.289Z,76888.72
2022-09-25T05:47:12.720Z,76886.72
2022-09-25T05:49:39.145Z,76876.78
2022-09-25T05:52:05.621Z,76872.81
2022-09-25T05:54:32.055Z,76868.84
2022-09-25T05:56:58.833Z,76876.78
2022-09-25T05:59:25.447Z,76874.81
2022-09-25T06:01:51.955Z,76890.72
2022-09-25T06:04:18.536Z,76872.81
2022-09-25T06:06:45.000Z,76878.78
2022-09-25T06:09:11.480Z,76884.75
2022-09-25T06:11:38.025Z,76876.78
2022-09-25T06:14:04.559Z,76866.84
2022-09-25T06:16:31.170Z,76876.78
2022-09-25T06:18:57.852Z,76894.69
2022-09-25T06:21:24.390Z,76890.72
2022-09-25T06:23:50.923Z,76862.88
2022-09-25T06:26:17.390Z,76847.00
2022-09-25T06:28:44.081Z,76870.84
2022-09-25T06:31:10.646Z,76870.84
2022-09-25T06:33:37.136Z,76835.06
2022-09-25T06:36:05.526Z,76829.09
2022-09-25T06:38:34.379Z,76841.03
2022-09-25T06:41:01.170Z,76841.03
2022-09-25T06:43:28.529Z,76833.06
2022-09-25T06:45:55.075Z,76841.03
2022-09-25T06:48:22.292Z,76843.00
2022-09-25T06:50:52.594Z,76852.94
2022-09-25T06:53:21.671Z,76829.09
2022-09-25T06:55:49.643Z,76807.25
2022-09-25T06:58:19.604Z,76797.31
2022-09-25T07:00:47.777Z,76751.59
2022-09-25T07:03:33.438Z,76761.53
2022-09-25T07:06:01.465Z,76777.44
2022-09-25T07:08:28.583Z,76755.56
2022-09-25T07:10:56.963Z,76775.44
2022-09-25T07:13:30.080Z,76747.63
2022-09-25T07:15:59.209Z,76713.84
2022-09-25T07:18:27.249Z,76682.03
2022-09-25T07:20:59.091Z,76670.13
2022-09-25T07:23:25.661Z,76662.16
2022-09-25T07:25:53.593Z,76672.09
2022-09-25T07:28:20.355Z,76703.91
2022-09-25T07:30:48.672Z,76674.09
2022-09-25T07:33:16.470Z,76672.09
2022-09-25T07:35:42.968Z,76684.03
2022-09-25T07:38:09.433Z,76686.00
2022-09-25T07:40:36.118Z,76650.25
2022-09-25T07:43:03.781Z,76638.31
2022-09-25T07:45:31.107Z,76662.16
2022-09-25T07:47:59.100Z,76654.22
2022-09-25T07:50:25.570Z,76658.19
2022-09-25T07:52:53.559Z,76636.34
2022-09-25T07:55:20.776Z,76614.47
2022-09-25T07:57:48.956Z,76626.41
2022-09-25T08:00:15.532Z,76630.38
2022-09-25T08:02:42.341Z,76630.38
2022-09-25T08:05:10.369Z,76638.31
2022-09-25T08:07:37.027Z,76628.38
2022-09-25T08:10:03.822Z,76638.31
2022-09-25T08:12:30.357Z,76626.41
2022-09-25T08:14:57.407Z,76606.53
2022-09-25T08:17:23.927Z,76584.66
2022-09-25T08:19:50.359Z,76576.72
2022-09-25T08:22:16.791Z,76594.59
2022-09-25T08:24:43.283Z,76592.63
2022-09-25T08:27:09.764Z,76600.56
2022-09-25T08:29:36.269Z,76590.63
2022-09-25T08:32:02.938Z,76584.66
2022-09-25T08:34:40.628Z,76572.75
2022-09-25T08:37:08.376Z,76574.72
2022-09-25T08:39:34.964Z,76548.91
2022-09-25T08:42:02.344Z,76540.94
2022-09-25T08:44:36.243Z,76538.97
2022-09-25T08:47:30.307Z,76535.00
2022-09-25T08:50:12.746Z,76546.91
2022-09-25T08:52:48.035Z,76535.00
2022-09-25T08:55:52.762Z,76533.00
2022-09-25T08:58:33.346Z,76519.09
2022-09-25T09:01:04.689Z,76515.13
2022-09-25T09:03:33.326Z,76503.19
2022-09-25T09:06:07.301Z,76477.38
2022-09-25T09:08:38.616Z,76477.38
2022-09-25T09:11:13.707Z,76471.41
2022-09-25T09:13:55.135Z,76481.34
2022-09-25T09:16:33.080Z,76475.38
2022-09-25T09:19:03.532Z,76465.44
2022-09-25T09:21:37.869Z,76451.53
2022-09-25T09:24:11.846Z,76431.66
2022-09-25T09:27:09.458Z,76401.84
2022-09-25T09:29:53.248Z,76425.69
2022-09-25T09:32:31.472Z,76419.72
2022-09-25T09:35:13.029Z,76401.84
2022-09-25T09:37:58.503Z,76383.97
2022-09-25T09:40:51.826Z,76350.19
2022-09-25T09:43:57.881Z,76360.13
2022-09-25T09:46:56.551Z,76324.34
2022-09-25T09:49:51.571Z,76304.50
2022-09-25T09:52:23.270Z,76292.56
2022-09-25T09:54:55.160Z,76284.63
2022-09-25T09:57:26.627Z,76270.72
2022-09-25T10:00:05.026Z,76272.69
2022-09-25T10:02:37.065Z,76238.91
2022-09-25T10:05:09.905Z,76221.03
2022-09-25T10:07:40.280Z,76205.13
2022-09-25T10:10:15.084Z,76197.19
2022-09-25T10:12:53.703Z,76181.28
2022-09-25T10:15:42.195Z,76185.25
2022-09-25T10:18:09.247Z,76181.28
2022-09-25T10:20:55.455Z,76175.34
2022-09-25T10:23:46.401Z,76175.34
2022-09-25T10:26:36.988Z,76125.66
2022-09-25T10:29:36.112Z,76101.81
2022-09-25T10:32:04.066Z,76062.06
2022-09-25T10:34:31.944Z,76068.03
2022-09-25T10:36:58.760Z,76058.09
2022-09-25T10:39:48.895Z,76032.28
2022-09-25T10:42:33.831Z,76079.97
2022-09-25T10:45:00.359Z,76056.13
2022-09-25T10:47:49.509Z,76034.25
2022-09-25T10:50:21.316Z,76024.31
2022-09-25T10:52:54.040Z,75990.56
2022-09-25T10:55:28.479Z,75954.78
2022-09-25T10:58:03.338Z,76016.38
2022-09-25T11:00:30.046Z,76002.47
2022-09-25T11:03:03.257Z,76010.41
2022-09-25T11:05:33.839Z,75988.56
2022-09-25T11:08:04.459Z,75970.69
2022-09-25T11:10:42.707Z,75950.81
2022-09-25T11:13:24.414Z,75958.75
2022-09-25T11:15:54.364Z,75932.94
2022-09-25T11:18:43.017Z,75938.91
2022-09-25T11:21:18.434Z,75932.94
2022-09-25T11:24:02.152Z,75921.00
2022-09-25T11:26:34.798Z,75946.84
2022-09-25T11:29:13.022Z,75938.91
2022-09-25T11:31:45.761Z,75938.91
2022-09-25T11:34:33.714Z,75913.06
2022-09-25T11:37:11.412Z,75913.06
2022-09-25T11:40:01.316Z,75891.22
2022-09-25T11:42:51.412Z,75871.34
2022-09-25T11:45:30.485Z,75861.41
2022-09-25T11:48:24.000Z,75879.28
2022-09-25T11:51:14.829Z,75881.28
2022-09-25T11:53:52.963Z,75905.13
2022-09-25T11:56:33.038Z,75901.16
2022-09-25T11:59:15.792Z,75899.16
2022-09-25T12:01:48.878Z,75887.22
2022-09-25T12:04:59.295Z,75873.31
2022-09-25T12:07:53.728Z,75865.38
2022-09-25T12:10:28.688Z,75879.28
2022-09-25T12:13:13.053Z,75877.31
2022-09-25T12:16:20.080Z,75875.31
2022-09-25T12:19:12.760Z,75871.34
2022-09-25T12:22:02.011Z,75867.38
2022-09-25T12:24:46.280Z,75843.53
2022-09-25T12:27:23.171Z,75821.69
2022-09-25T12:30:11.951Z,75783.94
2022-09-25T12:32:47.251Z,75785.91
2022-09-25T12:35:33.931Z,75764.06
2022-09-25T12:38:24.617Z,75783.94
2022-09-25T12:41:24.096Z,75772.00
2022-09-25T12:43:59.475Z,75791.88
2022-09-25T12:46:26.061Z,75791.88
2022-09-25T12:49:34.614Z,75805.78
2022-09-25T12:52:22.790Z,75791.88
2022-09-25T12:55:00.456Z,75785.91
2022-09-25T12:57:35.208Z,75787.91
2022-09-25T13:00:20.261Z,75787.91
2022-09-25T13:02:55.780Z,75809.75
2022-09-25T13:06:04.638Z,75783.94
2022-09-25T13:08:41.736Z,75762.06
2022-09-25T13:11:40.933Z,75750.16
2022-09-25T13:14:26.357Z,75702.47
2022-09-25T13:16:53.043Z,75662.75
2022-09-25T13:19:33.321Z,75636.91
2022-09-25T13:22:06.406Z,75617.03
2022-09-25T13:24:53.939Z,75617.03
2022-09-25T13:27:23.183Z,75597.19
2022-09-25T13:29:57.110Z,75601.16
2022-09-25T13:32:31.807Z,75577.31
2022-09-25T13:35:07.079Z,75577.31
2022-09-25T13:37:37.255Z,75617.03
2022-09-25T13:40:45.256Z,75630.94
2022-09-25T13:43:22.832Z,75640.88
2022-09-25T13:46:19.962Z,75619.03
2022-09-25T13:48:46.488Z,75613.06
2022-09-25T13:51:22.103Z,75585.25
2022-09-25T13:54:04.696Z,75571.34
2022-09-25T13:56:34.169Z,75577.31
2022-09-25T13:59:04.064Z,75625.00
2022-09-25T14:01:41.730Z,75638.91
2022-09-25T14:04:21.849Z,75628.97
2022-09-25T14:06:54.692Z,75652.81
2022-09-25T14:09:24.284Z,75670.69
2022-09-25T14:12:03.311Z,75676.66
2022-09-25T14:14:35.913Z,75678.63
2022-09-25T14:17:04.618Z,75676.66
2022-09-25T14:19:39.599Z,75692.53
2022-09-25T14:22:07.602Z,75702.47
2022-09-25T14:24:35.545Z,75698.50
2022-09-25T14:27:02.392Z,75692.53
2022-09-25T14:29:39.586Z,75686.56
2022-09-25T14:32:54.590Z,75678.63
2022-09-25T14:35:47.924Z,75668.69
2022-09-25T14:38:51.259Z,75668.69
2022-09-25T14:41:53.094Z,75666.72
2022-09-25T14:44:25.680Z,75674.66
2022-09-25T14:46:54.497Z,75670.69
2022-09-25T14:49:33.436Z,75668.69
2022-09-25T14:52:04.122Z,75672.66
2022-09-25T14:54:38.153Z,75706.44
2022-09-25T14:57:06.250Z,75714.41
2022-09-25T14:59:49.559Z,75718.38
2022-09-25T15:02:23.949Z,75686.56
2022-09-25T15:04:51.175Z,75702.47
2022-09-25T15:07:22.924Z,75700.47
2022-09-25T15:09:55.234Z,75694.53
2022-09-25T15:12:27.352Z,75724.31
2022-09-25T15:15:21.635Z,75734.25
2022-09-25T15:17:59.256Z,75762.06
2022-09-25T15:20:30.243Z,75764.06
2022-09-25T15:23:06.230Z,75801.81
2022-09-25T15:25:38.044Z,75801.81
2022-09-25T15:28:07.331Z,75825.66
2022-09-25T15:30:36.821Z,75837.56
2022-09-25T15:33:03.343Z,75851.47
2022-09-25T15:35:30.750Z,75859.41
2022-09-25T15:38:11.101Z,75867.38
2022-09-25T15:40:38.790Z,75859.41
2022-09-25T15:43:13.224Z,75863.41
2022-09-25T15:45:50.104Z,75865.38
2022-09-25T15:48:21.026Z,75867.38
2022-09-25T15:50:48.580Z,75879.28
2022-09-25T15:53:43.916Z,75869.34
2022-09-25T15:56:28.341Z,75887.22
2022-09-25T15:59:14.344Z,75913.06
2022-09-25T16:02:01.188Z,75895.19
2022-09-25T16:04:46.589Z,75891.22
2022-09-25T16:07:25.543Z,75891.22
2022-09-25T16:10:02.534Z,75901.16
2022-09-25T16:12:33.605Z,75907.09
2022-09-25T16:15:25.604Z,75915.06
2022-09-25T16:18:01.422Z,75938.91
2022-09-25T16:20:39.431Z,75944.84
2022-09-25T16:23:18.764Z,75956.78
2022-09-25T16:25:45.768Z,75960.75
2022-09-25T16:28:20.249Z,75962.75
2022-09-25T16:30:55.358Z,75970.69
2022-09-25T16:33:27.635Z,75978.63
2022-09-25T16:36:13.045Z,75986.56
2022-09-25T16:38:45.517Z,76000.47
2022-09-25T16:41:11.988Z,76012.41
2022-09-25T16:43:39.715Z,76014.41
2022-09-25T16:46:16.075Z,76016.38
2022-09-25T16:48:45.867Z,76028.31
2022-09-25T16:51:23.878Z,76030.28
2022-09-25T16:53:50.962Z,76018.38
2022-09-25T16:56:29.533Z,76032.28
2022-09-25T16:58:56.820Z,76036.25
2022-09-25T17:01:25.305Z,76044.19
2022-09-25T17:03:52.785Z,76050.16
2022-09-25T17:06:26.921Z,76058.09
2022-09-25T17:08:59.372Z,76064.06
2022-09-25T17:11:26.126Z,76070.03
2022-09-25T17:13:54.868Z,76076.00
2022-09-25T17:16:21.638Z,76072.00
2022-09-25T17:18:48.337Z,76062.06
2022-09-25T17:21:16.507Z,76068.03
2022-09-25T17:23:44.187Z,76052.16
2022-09-25T17:26:23.387Z,76056.13
2022-09-25T17:28:51.204Z,76062.06
2022-09-25T17:31:20.472Z,76070.03
2022-09-25T17:33:49.965Z,76074.00
2022-09-25T17:36:17.032Z,76072.00
2022-09-25T17:38:48.778Z,76087.91
2022-09-25T17:41:20.697Z,76101.81
2022-09-25T17:43:47.825Z,76107.78
2022-09-25T17:46:19.226Z,76097.84
2022-09-25T17:48:51.618Z,76111.75
2022-09-25T17:51:25.286Z,76117.72
2022-09-25T17:53:56.122Z,76121.69
2022-09-25T17:56:24.347Z,76129.63
2022-09-25T17:58:54.837Z,76129.63
2022-09-25T18:01:23.296Z,76137.59
2022-09-25T18:04:13.336Z,76143.53
2022-09-25T18:06:43.364Z,76145.53
2022-09-25T18:09:10.319Z,76129.63
2022-09-25T18:11:36.977Z,76145.53
2022-09-25T18:14:06.388Z,76153.47
2022-09-25T18:16:32.976Z,76157.44
2022-09-25T18:19:18.417Z,76163.41
2022-09-25T18:22:03.474Z,76167.38
2022-09-25T18:24:30.358Z,76171.34
2022-09-25T18:26:58.035Z,76185.25
2022-09-25T18:29:24.924Z,76191.22
2022-09-25T18:31:52.056Z,76203.16
2022-09-25T18:34:21.691Z,76219.03
2022-09-25T18:36:49.937Z,76225.00
2022-09-25T18:39:20.040Z,76240.91
2022-09-25T18:41:47.884Z,76252.81
2022-09-25T18:44:16.918Z,76262.75
2022-09-25T18:46:43.687Z,76264.75
2022-09-25T18:49:11.143Z,76264.75
2022-09-25T18:51:37.933Z,76256.78
2022-09-25T18:54:04.456Z,76258.78
2022-09-25T18:56:34.552Z,76258.78
2022-09-25T18:59:04.533Z,76260.78
2022-09-25T19:01:32.953Z,76264.75
2022-09-25T19:04:03.487Z,76264.75
2022-09-25T19:06:30.086Z,76268.72
2022-09-25T19:08:57.981Z,76250.84
2022-09-25T19:11:25.859Z,76242.88
2022-09-25T19:13:52.945Z,76232.94
2022-09-25T19:16:20.765Z,76227.00
2022-09-25T19:18:47.536Z,76238.91
2022-09-25T19:21:15.825Z,76244.88
2022-09-25T19:23:43.549Z,76248.84
2022-09-25T19:26:15.134Z,76244.88
2022-09-25T19:28:42.282Z,76254.81
2022-09-25T19:31:18.046Z,76244.88
2022-09-25T19:33:45.470Z,76246.88
2022-09-25T19:36:15.861Z,76246.88
2022-09-25T19:38:43.513Z,76256.78
2022-09-25T19:41:16.238Z,76264.75
2022-09-25T19:43:43.274Z,76260.78
2022-09-25T19:46:12.827Z,76266.72
2022-09-25T19:48:39.356Z,76282.63
2022-09-25T19:51:09.194Z,76280.66
2022-09-25T19:53:38.314Z,76280.66
2022-09-25T19:56:06.059Z,76276.66
2022-09-25T19:58:35.342Z,76266.72
2022-09-25T20:01:03.364Z,76272.69
2022-09-25T20:03:29.973Z,76288.59
2022-09-25T20:05:56.640Z,76268.72
2022-09-25T20:08:23.080Z,76284.63
2022-09-25T20:10:49.568Z,76266.72
2022-09-25T20:13:16.109Z,76286.59
2022-09-25T20:15:45.704Z,76276.66
2022-09-25T20:18:12.229Z,76278.66
2022-09-25T20:20:38.879Z,76290.56
2022-09-25T20:23:05.353Z,76288.59
2022-09-25T20:25:31.866Z,76300.50
2022-09-25T20:27:59.696Z,76308.47
2022-09-25T20:30:26.471Z,76298.53
2022-09-25T20:32:52.915Z,76308.47
2022-09-25T20:35:19.920Z,76316.41
2022-09-25T20:37:47.223Z,76314.41
2022-09-25T20:40:15.101Z,76320.38
2022-09-25T20:42:42.291Z,76346.22
2022-09-25T20:45:10.063Z,76338.25
2022-09-25T20:47:36.993Z,76330.31
2022-09-25T20:50:04.902Z,76336.28
2022-09-25T20:52:32.767Z,76326.34
2022-09-25T20:54:59.797Z,76336.28
2022-09-25T20:57:26.336Z,76332.31
2022-09-25T20:59:52.842Z,76342.25
2022-09-25T21:02:19.422Z,76354.16
2022-09-25T21:04:45.999Z,76358.13
2022-09-25T21:07:16.805Z,76348.19
2022-09-25T21:09:43.772Z,76348.19
2022-09-25T21:12:10.321Z,76344.22
2022-09-25T21:14:37.231Z,76344.22
2022-09-25T21:17:04.017Z,76352.19
2022-09-25T21:19:31.835Z,76340.25
2022-09-25T21:21:58.358Z,76338.25
2022-09-25T21:24:24.895Z,76330.31
2022-09-25T21:26:54.069Z,76326.34
2022-09-25T21:29:20.832Z,76318.41
2022-09-25T21:31:50.376Z,76316.41
2022-09-25T21:34:18.204Z,76324.34
2022-09-25T21:36:45.706Z,76332.31
2022-09-25T21:39:13.330Z,76338.25
2022-09-25T21:41:40.206Z,76330.31
2022-09-25T21:44:15.385Z,76342.25
2022-09-25T21:46:42.191Z,76340.25
2022-09-25T21:49:08.879Z,76344.22
2022-09-25T21:51:45.357Z,76332.31
2022-09-25T21:54:13.726Z,76346.22
2022-09-25T21:56:41.353Z,76336.28
2022-09-25T21:59:09.334Z,76340.25
2022-09-25T22:01:38.596Z,76358.13
2022-09-25T22:04:06.397Z,76360.13
2022-09-25T22:06:35.691Z,76358.13
2022-09-25T22:09:06.089Z,76364.09
2022-09-25T22:11:33.035Z,76378.00
2022-09-25T22:14:00.473Z,76368.06
2022-09-25T22:16:30.308Z,76362.09
2022-09-25T22:18:58.044Z,76366.09
2022-09-25T22:21:30.297Z,76380.00
2022-09-25T22:23:57.404Z,76380.00
2022-09-25T22:26:24.719Z,76401.84
2022-09-25T22:28:51.944Z,76397.88
2022-09-25T22:31:21.674Z,76391.91
2022-09-25T22:33:49.255Z,76405.81
2022-09-25T22:36:15.818Z,76395.91
2022-09-25T22:38:42.368Z,76395.91
2022-09-25T22:41:11.518Z,76391.91
2022-09-25T22:43:38.193Z,76403.84
2022-09-25T22:46:06.389Z,76401.84
2022-09-25T22:48:33.562Z,76399.88
2022-09-25T22:51:21.659Z,76403.84
2022-09-25T22:53:49.089Z,76415.75
2022-09-25T22:56:17.173Z,76415.75
2022-09-25T22:58:47.434Z,76409.81
2022-09-25T23:01:21.334Z,76417.75
2022-09-25T23:03:48.530Z,76417.75
2022-09-25T23:06:15.047Z,76407.81
2022-09-25T23:08:41.516Z,76405.81
2022-09-25T23:11:08.524Z,76399.88
2022-09-25T23:13:36.498Z,76397.88
2022-09-25T23:16:07.876Z,76403.84
2022-09-25T23:18:37.011Z,76399.88
2022-09-25T23:21:04.488Z,76403.84
2022-09-25T23:23:31.663Z,76407.81
2022-09-25T23:26:06.065Z,76407.81
2022-09-25T23:28:38.380Z,76407.81
2022-09-25T23:31:10.734Z,76395.91
2022-09-25T23:33:38.023Z,76397.88
2022-09-25T23:36:10.304Z,76395.91
2022-09-25T23:38:37.430Z,76393.91
2022-09-25T23:41:19.615Z,76393.91
2022-09-25T23:43:47.924Z,76417.75
2022-09-25T23:46:16.294Z,76403.84
2022-09-25T23:48:43.663Z,76401.84
2022-09-25T23:51:11.071Z,76403.84
2022-09-25T23:53:38.354Z,76401.84
2022-09-25T23:56:13.948Z,76399.88
2022-09-25T23:58:41.409Z,76399.88
